createdAt,value
2018-08-13T00:01:01.160Z,18.90
2018-08-13T00:03:29.554Z,18.80
2018-08-13T00:05:57.863Z,18.80
2018-08-13T00:08:26.602Z,18.80
2018-08-13T00:10:55.104Z,18.70
2018-08-13T00:13:23.531Z,18.60
2018-08-13T00:15:51.868Z,18.70
2018-08-13T00:18:20.251Z,18.50
2018-08-13T00:20:48.704Z,18.50
2018-08-13T00:23:17.743Z,18.50
2018-08-13T00:25:46.191Z,18.50
2018-08-13T00:28:14.504Z,18.50
2018-08-13T00:30:42.984Z,18.40
2018-08-13T00:33:12.132Z,18.30
2018-08-13T00:35:40.600Z,18.30
2018-08-13T00:38:09.092Z,18.20
2018-08-13T00:40:37.691Z,18.20
2018-08-13T00:43:06.427Z,18.10
2018-08-13T00:45:34.893Z,18.10
2018-08-13T00:48:03.360Z,18.10
2018-08-13T00:50:32.366Z,18.10
2018-08-13T00:53:01.488Z,18.00
2018-08-13T00:55:30.150Z,17.90
2018-08-13T00:57:59.066Z,17.90
2018-08-13T01:00:27.405Z,17.90
2018-08-13T01:02:55.764Z,17.80
2018-08-13T01:05:24.344Z,17.80
2018-08-13T01:07:52.732Z,17.70
2018-08-13T01:10:22.610Z,17.70
2018-08-13T01:12:51.211Z,17.70
2018-08-13T01:15:20.300Z,17.70
2018-08-13T01:17:49.825Z,17.70
2018-08-13T01:20:19.050Z,17.70
2018-08-13T01:22:47.493Z,17.60
2018-08-13T01:25:17.417Z,17.70
2018-08-13T01:27:47.130Z,17.60
2018-08-13T01:30:17.095Z,17.50
2018-08-13T01:32:45.628Z,17.60
2018-08-13T01:35:14.115Z,17.50
2018-08-13T01:37:42.478Z,17.50
2018-08-13T01:40:11.583Z,17.50
2018-08-13T01:42:39.944Z,17.50
2018-08-13T01:45:09.867Z,17.40
2018-08-13T01:47:38.280Z,17.40
2018-08-13T01:50:08.351Z,17.40
2018-08-13T01:52:36.715Z,17.40
2018-08-13T01:55:05.975Z,17.40
2018-08-13T01:57:34.408Z,17.40
2018-08-13T02:00:02.818Z,17.40
2018-08-13T02:02:31.154Z,17.30
2018-08-13T02:04:59.574Z,17.30
2018-08-13T02:07:27.968Z,17.30
2018-08-13T02:09:56.356Z,17.20
2018-08-13T02:12:24.731Z,17.20
2018-08-13T02:14:53.225Z,17.20
2018-08-13T02:17:21.678Z,17.20
2018-08-13T02:19:50.004Z,17.20
2018-08-13T02:22:18.367Z,17.20
2018-08-13T02:24:46.695Z,17.10
2018-08-13T02:27:15.015Z,17.10
2018-08-13T02:29:43.367Z,17.00
2018-08-13T02:32:11.739Z,17.00
2018-08-13T02:34:40.088Z,17.00
2018-08-13T02:37:08.510Z,17.00
2018-08-13T02:39:36.885Z,16.90
2018-08-13T02:42:05.265Z,16.90
2018-08-13T02:44:33.659Z,16.90
2018-08-13T02:47:02.036Z,16.90
2018-08-13T02:49:30.435Z,16.90
2018-08-13T02:51:58.748Z,16.90
2018-08-13T02:54:27.119Z,16.90
2018-08-13T02:56:55.440Z,16.90
2018-08-13T02:59:23.889Z,16.90
2018-08-13T03:01:52.269Z,16.90
2018-08-13T03:04:20.671Z,16.90
2018-08-13T03:06:49.023Z,16.90
2018-08-13T03:09:17.417Z,16.90
2018-08-13T03:11:45.774Z,16.90
2018-08-13T03:14:14.136Z,16.90
2018-08-13T03:16:42.488Z,16.90
2018-08-13T03:19:10.873Z,16.90
2018-08-13T03:21:39.203Z,16.90
2018-08-13T03:24:07.638Z,17.00
2018-08-13T03:26:36.005Z,17.00
2018-08-13T03:29:04.373Z,17.10
2018-08-13T03:31:32.780Z,17.00
2018-08-13T03:34:01.141Z,17.00
2018-08-13T03:36:29.555Z,16.90
2018-08-13T03:38:57.920Z,16.80
2018-08-13T03:41:26.253Z,16.70
2018-08-13T03:43:54.624Z,16.80
2018-08-13T03:46:22.954Z,16.80
2018-08-13T03:48:51.327Z,16.80
2018-08-13T03:51:19.729Z,16.80
2018-08-13T03:53:48.075Z,16.80
2018-08-13T03:56:16.439Z,16.90
2018-08-13T03:58:44.787Z,16.90
2018-08-13T04:01:13.157Z,16.90
2018-08-13T04:03:41.460Z,16.90
2018-08-13T04:06:09.771Z,16.90
2018-08-13T04:08:38.137Z,16.90
2018-08-13T04:11:06.671Z,16.90
2018-08-13T04:13:34.987Z,16.90
2018-08-13T04:16:03.385Z,17.00
2018-08-13T04:18:31.756Z,17.00
2018-08-13T04:21:00.142Z,17.00
2018-08-13T04:23:28.591Z,17.10
2018-08-13T04:25:56.974Z,17.20
2018-08-13T04:28:25.339Z,17.20
2018-08-13T04:30:53.703Z,17.20
2018-08-13T04:33:22.052Z,17.20
2018-08-13T04:35:50.415Z,17.20
2018-08-13T04:38:18.723Z,17.20
2018-08-13T04:40:47.103Z,17.00
2018-08-13T04:43:15.420Z,17.10
2018-08-13T04:45:43.856Z,17.10
2018-08-13T04:48:12.200Z,17.00
2018-08-13T04:50:40.546Z,17.10
2018-08-13T04:53:08.875Z,17.10
2018-08-13T04:55:37.229Z,17.00
2018-08-13T04:58:05.575Z,17.10
2018-08-13T05:00:33.982Z,17.10
2018-08-13T05:03:02.316Z,17.20
2018-08-13T05:05:30.679Z,17.20
2018-08-13T05:07:59.045Z,17.30
2018-08-13T05:10:27.387Z,17.30
2018-08-13T05:12:55.721Z,17.30
2018-08-13T05:15:24.084Z,17.40
2018-08-13T05:17:52.439Z,17.50
2018-08-13T05:20:20.814Z,17.60
2018-08-13T05:22:49.320Z,17.70
2018-08-13T05:25:17.755Z,17.80
2018-08-13T05:27:46.114Z,17.90
2018-08-13T05:30:14.519Z,18.00
2018-08-13T05:32:42.850Z,18.00
2018-08-13T05:35:12.088Z,18.00
2018-08-13T05:37:46.594Z,18.00
2018-08-13T05:40:14.973Z,18.00
2018-08-13T05:42:43.390Z,18.00
2018-08-13T05:45:11.782Z,17.90
2018-08-13T05:47:40.625Z,18.00
2018-08-13T05:50:10.320Z,18.00
2018-08-13T05:52:38.767Z,18.10
2018-08-13T05:55:07.901Z,18.10
2018-08-13T05:57:36.303Z,18.20
2018-08-13T06:00:07.947Z,18.20
2018-08-13T06:02:36.332Z,18.30
2018-08-13T06:05:05.112Z,18.30
2018-08-13T06:07:33.537Z,18.40
2018-08-13T06:10:02.031Z,18.60
2018-08-13T06:12:30.444Z,18.70
2018-08-13T06:14:58.788Z,18.90
2018-08-13T06:17:27.719Z,19.10
2018-08-13T06:19:56.082Z,19.40
2018-08-13T06:22:24.521Z,19.70
2018-08-13T06:24:52.850Z,19.80
2018-08-13T06:27:21.175Z,20.00
2018-08-13T06:29:49.612Z,20.10
2018-08-13T06:32:17.954Z,20.30
2018-08-13T06:34:46.393Z,20.50
2018-08-13T06:37:14.814Z,20.80
2018-08-13T06:39:43.131Z,21.00
2018-08-13T06:42:11.512Z,21.10
2018-08-13T06:44:39.885Z,21.20
2018-08-13T06:47:08.260Z,21.30
2018-08-13T06:49:36.585Z,21.40
2018-08-13T06:52:04.931Z,21.30
2018-08-13T06:54:33.282Z,21.30
2018-08-13T06:57:02.083Z,21.30
2018-08-13T06:59:30.437Z,21.40
2018-08-13T07:01:58.787Z,21.40
2018-08-13T07:04:27.299Z,21.40
2018-08-13T07:06:55.688Z,21.40
2018-08-13T07:09:24.076Z,21.30
2018-08-13T07:11:52.431Z,21.30
2018-08-13T07:14:20.789Z,21.20
2018-08-13T07:16:49.113Z,21.30
2018-08-13T07:19:17.475Z,21.20
2018-08-13T07:21:45.867Z,21.20
2018-08-13T07:24:14.363Z,21.10
2018-08-13T07:26:42.723Z,21.10
2018-08-13T07:29:11.111Z,21.00
2018-08-13T07:31:39.489Z,21.00
2018-08-13T07:34:07.910Z,20.90
2018-08-13T07:36:36.295Z,20.80
2018-08-13T07:39:08.146Z,20.80
2018-08-13T07:41:36.440Z,20.80
2018-08-13T07:44:05.284Z,20.80
2018-08-13T07:46:33.722Z,20.80
2018-08-13T07:49:02.099Z,20.70
2018-08-13T07:51:30.580Z,20.80
2018-08-13T07:53:58.934Z,20.90
2018-08-13T07:56:27.287Z,20.80
2018-08-13T07:58:55.687Z,20.70
2018-08-13T08:01:24.064Z,20.60
2018-08-13T08:03:52.771Z,20.50
2018-08-13T08:06:21.141Z,20.50
2018-08-13T08:08:49.506Z,20.40
2018-08-13T08:11:17.928Z,20.30
2018-08-13T08:13:46.281Z,20.30
2018-08-13T08:16:14.653Z,20.30
2018-08-13T08:18:43.045Z,20.30
2018-08-13T08:22:40.620Z,20.30
2018-08-13T08:25:12.023Z,20.30
2018-08-13T08:27:40.450Z,20.30
2018-08-13T08:30:17.072Z,20.30
2018-08-13T08:32:45.771Z,20.30
2018-08-13T08:35:15.424Z,20.30
2018-08-13T08:37:43.898Z,20.40
2018-08-13T08:40:14.987Z,20.30
2018-08-13T08:42:59.273Z,20.40
2018-08-13T08:45:27.915Z,20.50
2018-08-13T08:47:56.933Z,20.50
2018-08-13T08:50:25.685Z,20.60
2018-08-13T08:52:54.097Z,20.60
2018-08-13T08:55:22.594Z,20.70
2018-08-13T08:57:51.308Z,20.70
2018-08-13T09:00:21.147Z,20.70
2018-08-13T09:02:49.681Z,20.70
2018-08-13T09:05:18.065Z,20.70
2018-08-13T09:07:46.839Z,20.70
2018-08-13T09:10:15.298Z,20.60
2018-08-13T09:12:43.777Z,20.60
2018-08-13T09:15:14.185Z,20.50
2018-08-13T09:17:53.985Z,20.50
2018-08-13T09:20:33.655Z,20.50
2018-08-13T09:23:13.354Z,20.50
2018-08-13T09:25:53.112Z,20.50
2018-08-13T09:28:32.807Z,20.40
2018-08-13T09:32:15.376Z,20.40
2018-08-13T09:34:50.713Z,20.40
2018-08-13T09:37:19.094Z,20.50
2018-08-13T09:39:47.462Z,20.60
2018-08-13T09:42:15.817Z,20.80
2018-08-13T09:44:44.211Z,20.80
2018-08-13T09:47:12.544Z,20.90
2018-08-13T09:49:40.894Z,20.90
2018-08-13T09:52:09.282Z,20.90
2018-08-13T09:54:37.812Z,21.00
2018-08-13T09:57:06.219Z,21.00
2018-08-13T09:59:34.583Z,21.00
2018-08-13T10:02:03.051Z,21.10
2018-08-13T10:04:31.400Z,21.10
2018-08-13T10:06:59.807Z,21.10
2018-08-13T10:09:28.360Z,21.10
2018-08-13T10:11:56.573Z,21.10
2018-08-13T10:14:24.927Z,21.20
2018-08-13T10:18:22.742Z,21.30
2018-08-13T10:20:51.163Z,21.30
2018-08-13T10:23:19.515Z,21.30
2018-08-13T10:25:47.874Z,21.20
2018-08-13T10:28:16.304Z,21.20
2018-08-13T10:30:44.677Z,21.30
2018-08-13T10:33:13.056Z,21.30
2018-08-13T10:35:41.413Z,21.30
2018-08-13T10:38:09.808Z,21.30
2018-08-13T10:40:38.179Z,21.30
2018-08-13T10:43:06.576Z,21.40
2018-08-13T10:45:34.945Z,21.40
2018-08-13T10:48:03.377Z,21.40
2018-08-13T10:50:31.777Z,21.50
2018-08-13T10:53:00.149Z,21.70
2018-08-13T10:55:28.537Z,21.70
2018-08-13T10:57:56.968Z,21.80
2018-08-13T11:00:25.387Z,21.80
2018-08-13T11:02:53.805Z,21.80
2018-08-13T11:05:22.269Z,21.90
2018-08-13T11:07:50.643Z,22.10
2018-08-13T11:10:19.044Z,22.20
2018-08-13T11:12:47.426Z,22.70
2018-08-13T11:15:17.640Z,23.10
2018-08-13T11:17:46.097Z,23.60
2018-08-13T11:20:14.595Z,24.20
2018-08-13T11:22:43.456Z,24.20
2018-08-13T11:25:13.545Z,24.10
2018-08-13T11:27:42.016Z,24.10
2018-08-13T11:30:12.484Z,24.10
2018-08-13T11:32:40.985Z,23.90
2018-08-13T11:35:09.417Z,23.90
2018-08-13T11:37:37.815Z,24.00
2018-08-13T11:40:10.608Z,24.20
2018-08-13T11:42:39.091Z,24.50
2018-08-13T11:45:07.873Z,24.60
2018-08-13T11:47:36.846Z,24.70
2018-08-13T11:50:08.614Z,24.50
2018-08-13T11:52:37.002Z,24.20
2018-08-13T11:55:05.536Z,24.10
2018-08-13T11:57:34.277Z,23.90
2018-08-13T12:00:03.160Z,23.60
2018-08-13T12:02:31.516Z,23.50
2018-08-13T12:04:59.908Z,23.30
2018-08-13T12:07:28.235Z,23.20
2018-08-13T12:09:56.619Z,23.20
2018-08-13T12:12:24.991Z,23.10
2018-08-13T12:14:53.355Z,22.90
2018-08-13T12:17:21.728Z,22.80
2018-08-13T12:19:50.086Z,22.80
2018-08-13T12:22:18.456Z,22.60
2018-08-13T12:24:46.803Z,22.70
2018-08-13T12:27:15.140Z,22.70
2018-08-13T12:29:43.487Z,22.60
2018-08-13T12:32:11.954Z,22.70
2018-08-13T12:34:40.349Z,22.80
2018-08-13T12:37:09.744Z,22.90
2018-08-13T12:39:38.964Z,22.80
2018-08-13T12:42:07.955Z,22.90
2018-08-13T12:44:36.616Z,22.60
2018-08-13T12:47:05.897Z,22.40
2018-08-13T12:49:34.320Z,22.40
2018-08-13T12:52:02.743Z,22.50
2018-08-13T12:54:31.167Z,22.70
2018-08-13T12:56:59.638Z,22.90
2018-08-13T12:59:27.971Z,23.00
2018-08-13T13:01:56.442Z,23.20
2018-08-13T13:04:24.888Z,23.20
2018-08-13T13:06:53.236Z,23.60
2018-08-13T13:09:21.679Z,24.10
2018-08-13T13:11:50.142Z,24.30
2018-08-13T13:14:18.567Z,24.70
2018-08-13T13:16:47.061Z,25.60
2018-08-13T13:19:15.543Z,25.70
2018-08-13T13:21:43.984Z,25.50
2018-08-13T13:24:12.327Z,25.50
2018-08-13T13:26:40.783Z,26.10
2018-08-13T13:29:09.235Z,26.50
2018-08-13T13:31:37.649Z,26.60
2018-08-13T13:34:06.111Z,26.40
2018-08-13T13:36:34.557Z,26.10
2018-08-13T13:39:03.046Z,25.90
2018-08-13T13:41:31.638Z,25.90
2018-08-13T13:43:59.967Z,25.80
2018-08-13T13:46:28.399Z,25.70
2018-08-13T13:48:56.752Z,25.60
2018-08-13T13:51:25.210Z,25.70
2018-08-13T13:53:53.543Z,25.60
2018-08-13T13:56:21.907Z,26.00
2018-08-13T13:58:50.385Z,26.10
2018-08-13T14:01:18.765Z,26.00
2018-08-13T14:03:47.123Z,25.90
2018-08-13T14:06:15.550Z,25.90
2018-08-13T14:08:43.923Z,26.50
2018-08-13T14:11:12.271Z,27.50
2018-08-13T14:13:40.781Z,27.80
2018-08-13T14:16:09.217Z,27.90
2018-08-13T14:18:38.449Z,28.10
2018-08-13T14:21:06.924Z,28.60
2018-08-13T14:23:35.303Z,29.00
2018-08-13T14:26:03.677Z,29.30
2018-08-13T14:28:37.817Z,29.50
2018-08-13T14:31:06.678Z,29.70
2018-08-13T14:33:35.084Z,30.00
2018-08-13T14:36:03.516Z,29.80
2018-08-13T14:38:32.254Z,30.20
2018-08-13T14:41:00.715Z,30.20
2018-08-13T14:43:29.056Z,30.50
2018-08-13T14:45:57.515Z,30.70
2018-08-13T14:48:26.064Z,30.90
2018-08-13T14:50:54.454Z,30.70
2018-08-13T14:53:22.918Z,30.50
2018-08-13T14:55:51.926Z,29.90
2018-08-13T14:58:20.379Z,29.10
2018-08-13T15:00:48.816Z,28.60
2018-08-13T15:03:17.244Z,28.20
2018-08-13T15:05:45.833Z,27.90
2018-08-13T15:08:14.216Z,27.60
2018-08-13T15:10:42.576Z,27.50
2018-08-13T15:13:10.947Z,27.50
2018-08-13T15:15:42.005Z,27.30
2018-08-13T15:18:10.759Z,27.70
2018-08-13T15:20:39.224Z,28.60
2018-08-13T15:23:08.214Z,29.20
2018-08-13T15:25:36.577Z,28.80
2018-08-13T15:28:05.152Z,28.30
2018-08-13T15:30:33.536Z,28.10
2018-08-13T15:33:02.159Z,27.70
2018-08-13T15:35:30.936Z,27.60
2018-08-13T15:37:59.381Z,27.70
2018-08-13T15:40:27.984Z,27.60
2018-08-13T15:42:56.401Z,27.30
2018-08-13T15:45:24.915Z,27.20
2018-08-13T15:47:53.463Z,26.60
2018-08-13T15:50:22.781Z,26.20
2018-08-13T15:52:51.687Z,26.10
2018-08-13T15:55:20.167Z,26.10
2018-08-13T15:57:48.775Z,25.70
2018-08-13T16:00:20.406Z,25.10
2018-08-13T16:02:49.274Z,25.00
2018-08-13T16:05:17.991Z,24.10
2018-08-13T16:07:46.684Z,23.50
2018-08-13T16:10:16.222Z,23.00
2018-08-13T16:12:45.120Z,22.90
2018-08-13T16:15:13.696Z,23.20
2018-08-13T16:17:42.726Z,24.00
2018-08-13T16:20:14.135Z,24.70
2018-08-13T16:22:43.281Z,25.40
2018-08-13T16:25:11.673Z,25.70
2018-08-13T16:27:40.273Z,25.60
2018-08-13T16:30:13.028Z,25.30
2018-08-13T16:32:41.409Z,25.10
2018-08-13T16:35:09.807Z,25.20
2018-08-13T16:37:38.221Z,25.50
2018-08-13T16:40:07.074Z,25.50
2018-08-13T16:42:35.522Z,25.60
2018-08-13T16:45:04.390Z,25.20
2018-08-13T16:47:32.772Z,25.30
2018-08-13T16:50:01.204Z,25.40
2018-08-13T16:52:29.688Z,25.60
2018-08-13T16:54:58.577Z,26.10
2018-08-13T16:57:27.132Z,26.60
2018-08-13T16:59:55.572Z,26.90
2018-08-13T17:02:24.033Z,26.90
2018-08-13T17:04:52.387Z,27.20
2018-08-13T17:07:20.776Z,27.60
2018-08-13T17:09:49.267Z,27.70
2018-08-13T17:12:17.662Z,27.90
2018-08-13T17:14:46.039Z,27.90
2018-08-13T17:17:14.468Z,28.10
2018-08-13T17:19:42.870Z,27.80
2018-08-13T17:22:11.416Z,27.40
2018-08-13T17:24:40.106Z,27.40
2018-08-13T17:27:09.348Z,27.60
2018-08-13T17:29:38.581Z,27.90
2018-08-13T17:32:07.843Z,28.30
2018-08-13T17:34:36.528Z,28.20
2018-08-13T17:37:05.462Z,28.20
2018-08-13T17:39:33.872Z,28.40
2018-08-13T17:42:02.292Z,28.20
2018-08-13T17:44:31.356Z,27.30
2018-08-13T17:47:00.527Z,26.50
2018-08-13T17:49:30.079Z,26.00
2018-08-13T17:51:59.757Z,25.60
2018-08-13T17:54:29.291Z,25.50
2018-08-13T17:56:58.633Z,25.30
2018-08-13T17:59:27.548Z,25.10
2018-08-13T18:01:56.060Z,24.90
2018-08-13T18:04:24.419Z,24.80
2018-08-13T18:06:52.936Z,24.90
2018-08-13T18:09:21.873Z,25.00
2018-08-13T18:11:51.407Z,25.00
2018-08-13T18:14:20.693Z,25.00
2018-08-13T18:16:50.124Z,25.00
2018-08-13T18:19:19.374Z,24.70
2018-08-13T18:21:48.257Z,24.50
2018-08-13T18:24:16.917Z,24.30
2018-08-13T18:26:45.307Z,24.20
2018-08-13T18:35:18.030Z,23.80
2018-08-13T18:41:14.055Z,23.50
2018-08-13T18:49:45.515Z,23.30
2018-08-13T18:52:16.396Z,23.20
2018-08-13T18:57:49.524Z,23.10
2018-08-13T19:00:20.561Z,23.00
2018-08-13T19:02:49.042Z,22.90
2018-08-13T19:05:18.263Z,22.80
2018-08-13T19:07:47.216Z,22.80
2018-08-13T19:10:16.603Z,22.70
2018-08-13T19:12:45.148Z,22.60
2018-08-13T19:15:17.024Z,22.50
2018-08-13T19:17:45.515Z,22.60
2018-08-13T19:20:14.960Z,22.60
2018-08-13T19:22:43.849Z,22.60
2018-08-13T19:25:14.476Z,22.60
2018-08-13T19:27:43.836Z,22.60
2018-08-13T19:30:14.428Z,22.50
2018-08-13T19:32:43.620Z,22.50
2018-08-13T19:35:12.506Z,22.40
2018-08-13T19:37:40.984Z,22.50
2018-08-13T19:40:12.892Z,22.50
2018-08-13T19:42:41.369Z,22.50
2018-08-13T19:45:11.210Z,22.50
2018-08-13T19:47:39.769Z,22.40
2018-08-13T19:50:09.760Z,22.40
2018-08-13T19:52:38.808Z,22.50
2018-08-13T19:55:07.770Z,22.40
2018-08-13T19:57:36.207Z,22.40
2018-08-13T20:00:11.491Z,22.40
2018-08-13T20:02:39.953Z,22.40
2018-08-13T20:05:09.041Z,22.40
2018-08-13T20:07:37.500Z,22.40
2018-08-13T20:10:08.212Z,22.40
2018-08-13T20:12:37.307Z,22.50
2018-08-13T20:15:06.266Z,22.40
2018-08-13T20:17:35.589Z,22.40
2018-08-13T20:20:04.663Z,22.40
2018-08-13T20:22:33.172Z,22.40
2018-08-13T20:25:01.552Z,22.40
2018-08-13T20:27:29.975Z,22.30
2018-08-13T20:29:58.484Z,22.20
2018-08-13T20:32:27.451Z,22.20
2018-08-13T20:34:57.337Z,22.20
2018-08-13T20:37:26.556Z,22.30
2018-08-13T20:39:55.137Z,22.20
2018-08-13T20:42:23.633Z,22.30
2018-08-13T20:44:52.034Z,22.20
2018-08-13T20:47:20.575Z,22.30
2018-08-13T20:50:03.625Z,22.30
2018-08-13T20:52:32.004Z,22.20
2018-08-13T20:55:00.465Z,22.10
2018-08-13T20:57:28.989Z,22.10
2018-08-13T20:59:57.480Z,22.00
2018-08-13T21:02:25.869Z,21.90
2018-08-13T21:04:54.284Z,21.90
2018-08-13T21:07:22.751Z,21.80
2018-08-13T21:09:51.103Z,21.70
2018-08-13T21:12:19.652Z,21.70
2018-08-13T21:14:48.096Z,21.80
2018-08-13T21:17:16.525Z,21.70
2018-08-13T21:19:45.102Z,21.60
2018-08-13T21:22:13.633Z,21.60
2018-08-13T21:24:42.052Z,21.50
2018-08-13T21:27:10.435Z,21.40
2018-08-13T21:29:38.821Z,21.40
2018-08-13T21:32:07.528Z,21.40
2018-08-13T21:34:36.490Z,21.40
2018-08-13T21:43:19.327Z,21.20
2018-08-13T21:45:50.950Z,21.30
2018-08-13T21:48:19.664Z,21.10
2018-08-13T21:50:48.362Z,21.10
2018-08-13T21:53:16.833Z,21.10
2018-08-13T21:55:45.571Z,21.10
2018-08-13T21:58:14.431Z,21.10
2018-08-13T22:00:48.362Z,21.00
2018-08-13T22:03:16.983Z,21.00
2018-08-13T22:05:45.423Z,20.90
2018-08-13T22:08:13.833Z,20.90
2018-08-13T22:10:42.321Z,20.90
2018-08-13T22:13:10.775Z,20.80
2018-08-13T22:15:39.465Z,20.80
2018-08-13T22:18:08.377Z,20.80
2018-08-13T22:20:37.724Z,20.70
2018-08-13T22:23:07.512Z,20.70
2018-08-13T22:25:42.250Z,20.70
2018-08-13T22:28:11.575Z,20.70
2018-08-13T22:30:39.997Z,20.60
2018-08-13T22:33:09.489Z,20.60
2018-08-13T22:35:37.865Z,20.50
2018-08-13T22:38:06.693Z,20.40
2018-08-13T22:40:35.281Z,20.40
2018-08-13T22:43:03.776Z,20.40
2018-08-13T22:45:32.093Z,20.40
2018-08-13T22:48:00.495Z,20.40
2018-08-13T22:50:28.895Z,20.40
2018-08-13T22:52:57.357Z,20.30
2018-08-13T22:55:25.813Z,20.40
2018-08-13T22:57:54.241Z,20.30
2018-08-13T23:00:22.729Z,20.30
2018-08-13T23:02:51.619Z,20.30
2018-08-13T23:05:21.716Z,20.30
2018-08-13T23:07:50.130Z,20.30
2018-08-13T23:10:19.940Z,20.20
2018-08-13T23:12:49.480Z,20.20
2018-08-13T23:15:18.702Z,20.20
2018-08-13T23:17:47.215Z,20.20
2018-08-13T23:20:26.269Z,20.20
2018-08-13T23:22:56.827Z,20.20
2018-08-13T23:25:25.472Z,20.30
2018-08-13T23:27:54.865Z,20.30
2018-08-13T23:30:23.338Z,20.30
2018-08-13T23:32:52.962Z,20.30
2018-08-13T23:35:22.148Z,20.30
2018-08-13T23:37:50.945Z,20.30
2018-08-13T23:40:20.223Z,20.30
2018-08-13T23:42:48.656Z,20.40
2018-08-13T23:45:20.413Z,20.30
2018-08-13T23:47:50.144Z,20.30
2018-08-13T23:50:20.568Z,20.30
2018-08-13T23:52:50.128Z,20.40
2018-08-13T23:55:24.902Z,20.30
2018-08-13T23:57:53.543Z,20.30
